sensor_id;sensor_type;location;lat;lon;timestamp;temperature;humidity
435;DHT22;204;48.942;9.256;2022-09-13T00:01:16;14.50;1.00
435;DHT22;204;48.942;9.256;2022-09-13T00:03:42;14.50;1.00
435;DHT22;204;48.942;9.256;2022-09-13T00:06:09;14.50;1.00
435;DHT22;204;48.942;9.256;2022-09-13T00:08:36;14.50;1.00
435;DHT22;204;48.942;9.256;2022-09-13T00:11:01;14.50;1.00
435;DHT22;204;48.942;9.256;2022-09-13T00:13:27;14.50;1.00
435;DHT22;204;48.942;9.256;2022-09-13T00:15:53;14.50;1.00
435;DHT22;204;48.942;9.256;2022-09-13T00:18:18;14.50;1.00
435;DHT22;204;48.942;9.256;2022-09-13T00:20:44;14.50;1.00
435;DHT22;204;48.942;9.256;2022-09-13T00:23:10;14.40;1.00
435;DHT22;204;48.942;9.256;2022-09-13T00:25:36;14.40;1.00
435;DHT22;204;48.942;9.256;2022-09-13T00:28:02;14.40;1.00
435;DHT22;204;48.942;9.256;2022-09-13T00:30:28;14.30;1.00
435;DHT22;204;48.942;9.256;2022-09-13T00:32:54;14.30;1.00
435;DHT22;204;48.942;9.256;2022-09-13T00:35:20;14.30;1.00
435;DHT22;204;48.942;9.256;2022-09-13T00:37:46;14.30;1.00
435;DHT22;204;48.942;9.256;2022-09-13T00:40:12;14.30;1.00
435;DHT22;204;48.942;9.256;2022-09-13T00:42:37;14.20;1.00
435;DHT22;204;48.942;9.256;2022-09-13T00:50:28;14.20;1.00
435;DHT22;204;48.942;9.256;2022-09-13T00:56:07;14.10;1.00
435;DHT22;204;48.942;9.256;2022-09-13T00:58:51;14.10;1.00
435;DHT22;204;48.942;9.256;2022-09-13T01:01:19;14.00;1.00
435;DHT22;204;48.942;9.256;2022-09-13T01:03:47;14.00;1.00
435;DHT22;204;48.942;9.256;2022-09-13T01:06:19;14.00;1.00
435;DHT22;204;48.942;9.256;2022-09-13T01:08:49;14.00;1.00
435;DHT22;204;48.942;9.256;2022-09-13T01:11:27;13.90;1.00
435;DHT22;204;48.942;9.256;2022-09-13T01:13:55;13.90;1.00
435;DHT22;204;48.942;9.256;2022-09-13T01:16:21;13.90;1.00
435;DHT22;204;48.942;9.256;2022-09-13T01:18:47;13.80;1.00
435;DHT22;204;48.942;9.256;2022-09-13T01:35:39;13.70;1.00
435;DHT22;204;48.942;9.256;2022-09-13T01:38:27;13.70;1.00
435;DHT22;204;48.942;9.256;2022-09-13T01:46:48;13.60;1.00
435;DHT22;204;48.942;9.256;2022-09-13T01:49:47;13.60;1.00
435;DHT22;204;48.942;9.256;2022-09-13T01:52:26;13.60;1.00
435;DHT22;204;48.942;9.256;2022-09-13T01:57:45;13.60;1.00
435;DHT22;204;48.942;9.256;2022-09-13T02:00:15;13.60;1.00
435;DHT22;204;48.942;9.256;2022-09-13T02:02:49;13.60;1.00
435;DHT22;204;48.942;9.256;2022-09-13T02:05:26;13.50;1.00
435;DHT22;204;48.942;9.256;2022-09-13T02:08:09;13.60;1.00
435;DHT22;204;48.942;9.256;2022-09-13T02:10:41;13.60;1.00
435;DHT22;204;48.942;9.256;2022-09-13T02:13:21;13.60;1.00
435;DHT22;204;48.942;9.256;2022-09-13T02:15:53;13.50;1.00
435;DHT22;204;48.942;9.256;2022-09-13T02:18:29;13.50;1.00
435;DHT22;204;48.942;9.256;2022-09-13T02:21:02;13.50;1.00
435;DHT22;204;48.942;9.256;2022-09-13T02:23:37;13.50;1.00
435;DHT22;204;48.942;9.256;2022-09-13T02:26:04;13.40;1.00
435;DHT22;204;48.942;9.256;2022-09-13T02:28:35;13.40;1.00
435;DHT22;204;48.942;9.256;2022-09-13T02:31:03;13.40;1.00
435;DHT22;204;48.942;9.256;2022-09-13T02:33:56;13.40;1.00
435;DHT22;204;48.942;9.256;2022-09-13T02:36:23;13.40;1.00
435;DHT22;204;48.942;9.256;2022-09-13T02:38:58;13.30;1.00
435;DHT22;204;48.942;9.256;2022-09-13T02:44:07;13.30;1.00
435;DHT22;204;48.942;9.256;2022-09-13T02:57:48;13.20;1.00
435;DHT22;204;48.942;9.256;2022-09-13T03:00:15;13.10;1.00
435;DHT22;204;48.942;9.256;2022-09-13T03:02:42;13.10;1.00
435;DHT22;204;48.942;9.256;2022-09-13T03:05:10;13.10;1.00
435;DHT22;204;48.942;9.256;2022-09-13T03:07:35;13.10;1.00
435;DHT22;204;48.942;9.256;2022-09-13T03:10:05;13.10;1.00
435;DHT22;204;48.942;9.256;2022-09-13T03:23:58;13.00;1.00
435;DHT22;204;48.942;9.256;2022-09-13T03:29:36;12.90;1.00
435;DHT22;204;48.942;9.256;2022-09-13T03:40:51;12.80;1.00
435;DHT22;204;48.942;9.256;2022-09-13T03:43:24;12.80;1.00
435;DHT22;204;48.942;9.256;2022-09-13T03:45:58;12.80;1.00
435;DHT22;204;48.942;9.256;2022-09-13T03:48:25;12.80;1.00
435;DHT22;204;48.942;9.256;2022-09-13T03:50:52;12.80;1.00
435;DHT22;204;48.942;9.256;2022-09-13T03:53:24;12.80;1.00
435;DHT22;204;48.942;9.256;2022-09-13T03:55:50;12.80;1.00
435;DHT22;204;48.942;9.256;2022-09-13T03:58:18;12.70;1.00
435;DHT22;204;48.942;9.256;2022-09-13T04:00:44;12.80;1.00
435;DHT22;204;48.942;9.256;2022-09-13T04:03:11;12.80;1.00
435;DHT22;204;48.942;9.256;2022-09-13T04:05:37;12.80;1.00
435;DHT22;204;48.942;9.256;2022-09-13T04:08:04;12.70;1.00
435;DHT22;204;48.942;9.256;2022-09-13T04:10:34;12.70;1.00
435;DHT22;204;48.942;9.256;2022-09-13T04:13:00;12.70;1.00
435;DHT22;204;48.942;9.256;2022-09-13T04:15:26;12.70;1.00
435;DHT22;204;48.942;9.256;2022-09-13T04:17:52;12.70;1.00
435;DHT22;204;48.942;9.256;2022-09-13T04:20:18;12.70;1.00
435;DHT22;204;48.942;9.256;2022-09-13T04:22:54;12.70;1.00
435;DHT22;204;48.942;9.256;2022-09-13T04:25:21;12.70;1.00
435;DHT22;204;48.942;9.256;2022-09-13T04:27:52;12.70;1.00
435;DHT22;204;48.942;9.256;2022-09-13T04:30:17;12.70;1.00
435;DHT22;204;48.942;9.256;2022-09-13T04:32:43;12.80;1.00
435;DHT22;204;48.942;9.256;2022-09-13T04:35:09;12.80;1.00
435;DHT22;204;48.942;9.256;2022-09-13T04:37:35;12.80;1.00
435;DHT22;204;48.942;9.256;2022-09-13T04:40:01;12.90;1.00
435;DHT22;204;48.942;9.256;2022-09-13T04:42:26;12.90;1.00
435;DHT22;204;48.942;9.256;2022-09-13T04:44:52;13.00;1.00
435;DHT22;204;48.942;9.256;2022-09-13T04:47:17;13.00;1.00
435;DHT22;204;48.942;9.256;2022-09-13T04:49:43;13.10;1.00
435;DHT22;204;48.942;9.256;2022-09-13T04:52:09;13.10;1.00
435;DHT22;204;48.942;9.256;2022-09-13T04:54:34;13.20;1.00
435;DHT22;204;48.942;9.256;2022-09-13T04:57:00;13.20;1.00
435;DHT22;204;48.942;9.256;2022-09-13T04:59:25;13.30;1.00
435;DHT22;204;48.942;9.256;2022-09-13T05:01:52;13.30;1.00
435;DHT22;204;48.942;9.256;2022-09-13T05:04:17;13.40;1.00
435;DHT22;204;48.942;9.256;2022-09-13T05:06:43;13.40;1.00
435;DHT22;204;48.942;9.256;2022-09-13T05:09:13;13.50;1.00
435;DHT22;204;48.942;9.256;2022-09-13T05:11:39;13.50;1.00
435;DHT22;204;48.942;9.256;2022-09-13T05:14:05;13.60;1.00
435;DHT22;204;48.942;9.256;2022-09-13T05:16:32;13.60;1.00
435;DHT22;204;48.942;9.256;2022-09-13T05:18:58;13.70;1.00
435;DHT22;204;48.942;9.256;2022-09-13T05:21:25;13.70;1.00
435;DHT22;204;48.942;9.256;2022-09-13T05:23:53;13.80;1.00
435;DHT22;204;48.942;9.256;2022-09-13T05:26:19;13.80;1.00
435;DHT22;204;48.942;9.256;2022-09-13T05:28:45;13.90;1.00
435;DHT22;204;48.942;9.256;2022-09-13T05:31:22;14.00;1.00
435;DHT22;204;48.942;9.256;2022-09-13T05:33:55;14.10;1.00
435;DHT22;204;48.942;9.256;2022-09-13T05:36:21;14.10;1.00
435;DHT22;204;48.942;9.256;2022-09-13T05:38:46;14.20;1.00
435;DHT22;204;48.942;9.256;2022-09-13T05:41:12;14.30;1.00
435;DHT22;204;48.942;9.256;2022-09-13T05:43:37;14.40;1.00
435;DHT22;204;48.942;9.256;2022-09-13T05:46:09;14.40;1.00
435;DHT22;204;48.942;9.256;2022-09-13T05:48:35;14.50;1.00
435;DHT22;204;48.942;9.256;2022-09-13T05:51:17;14.60;1.00
435;DHT22;204;48.942;9.256;2022-09-13T05:53:45;14.70;1.00
435;DHT22;204;48.942;9.256;2022-09-13T05:56:13;14.90;1.00
435;DHT22;204;48.942;9.256;2022-09-13T05:58:40;15.00;1.00
435;DHT22;204;48.942;9.256;2022-09-13T06:01:06;15.00;1.00
435;DHT22;204;48.942;9.256;2022-09-13T06:03:32;15.10;1.00
435;DHT22;204;48.942;9.256;2022-09-13T06:05:58;15.20;1.00
435;DHT22;204;48.942;9.256;2022-09-13T06:08:25;15.30;1.00
435;DHT22;204;48.942;9.256;2022-09-13T06:10:58;15.40;1.00
435;DHT22;204;48.942;9.256;2022-09-13T06:13:25;15.50;1.00
435;DHT22;204;48.942;9.256;2022-09-13T06:15:52;15.60;1.00
435;DHT22;204;48.942;9.256;2022-09-13T06:18:18;15.70;1.00
435;DHT22;204;48.942;9.256;2022-09-13T06:20:45;15.90;1.00
435;DHT22;204;48.942;9.256;2022-09-13T06:23:11;16.00;1.00
435;DHT22;204;48.942;9.256;2022-09-13T06:25:36;16.10;1.00
435;DHT22;204;48.942;9.256;2022-09-13T06:28:02;16.20;1.00
435;DHT22;204;48.942;9.256;2022-09-13T06:30:28;16.40;1.00
435;DHT22;204;48.942;9.256;2022-09-13T06:32:55;16.50;1.00
435;DHT22;204;48.942;9.256;2022-09-13T06:35:21;16.60;1.00
435;DHT22;204;48.942;9.256;2022-09-13T06:37:46;16.70;1.00
435;DHT22;204;48.942;9.256;2022-09-13T06:40:12;16.80;1.00
435;DHT22;204;48.942;9.256;2022-09-13T06:42:38;16.90;1.00
435;DHT22;204;48.942;9.256;2022-09-13T06:45:04;16.90;1.00
435;DHT22;204;48.942;9.256;2022-09-13T06:47:30;16.90;1.00
435;DHT22;204;48.942;9.256;2022-09-13T06:49:56;17.10;1.00
435;DHT22;204;48.942;9.256;2022-09-13T06:52:22;17.20;1.00
435;DHT22;204;48.942;9.256;2022-09-13T06:54:47;17.40;1.00
435;DHT22;204;48.942;9.256;2022-09-13T06:57:13;17.60;1.00
435;DHT22;204;48.942;9.256;2022-09-13T06:59:39;17.80;1.00
435;DHT22;204;48.942;9.256;2022-09-13T07:02:04;18.10;1.00
435;DHT22;204;48.942;9.256;2022-09-13T07:04:30;18.30;1.00
435;DHT22;204;48.942;9.256;2022-09-13T07:06:57;18.60;1.00
435;DHT22;204;48.942;9.256;2022-09-13T07:09:23;18.80;1.00
435;DHT22;204;48.942;9.256;2022-09-13T07:11:51;19.00;1.00
435;DHT22;204;48.942;9.256;2022-09-13T07:14:22;19.20;1.00
435;DHT22;204;48.942;9.256;2022-09-13T07:16:49;19.40;1.00
435;DHT22;204;48.942;9.256;2022-09-13T07:19:26;19.70;1.00
435;DHT22;204;48.942;9.256;2022-09-13T07:21:53;19.90;1.00
435;DHT22;204;48.942;9.256;2022-09-13T07:24:19;20.00;1.00
435;DHT22;204;48.942;9.256;2022-09-13T07:26:46;20.20;1.00
435;DHT22;204;48.942;9.256;2022-09-13T07:29:14;20.40;1.00
435;DHT22;204;48.942;9.256;2022-09-13T07:31:42;20.60;1.00
435;DHT22;204;48.942;9.256;2022-09-13T07:34:20;20.80;1.00
435;DHT22;204;48.942;9.256;2022-09-13T07:36:46;21.10;1.00
435;DHT22;204;48.942;9.256;2022-09-13T07:39:16;21.50;1.00
435;DHT22;204;48.942;9.256;2022-09-13T07:41:42;21.90;1.00
435;DHT22;204;48.942;9.256;2022-09-13T07:44:10;22.30;1.00
435;DHT22;204;48.942;9.256;2022-09-13T07:46:36;22.60;1.00
435;DHT22;204;48.942;9.256;2022-09-13T07:49:05;22.90;1.00
435;DHT22;204;48.942;9.256;2022-09-13T07:51:33;23.30;1.00
435;DHT22;204;48.942;9.256;2022-09-13T07:54:02;23.40;1.00
435;DHT22;204;48.942;9.256;2022-09-13T07:56:35;23.40;1.00
435;DHT22;204;48.942;9.256;2022-09-13T07:59:04;23.50;1.00
435;DHT22;204;48.942;9.256;2022-09-13T08:01:35;23.60;1.00
435;DHT22;204;48.942;9.256;2022-09-13T08:04:06;23.80;1.00
435;DHT22;204;48.942;9.256;2022-09-13T08:06:34;24.00;1.00
435;DHT22;204;48.942;9.256;2022-09-13T08:09:00;24.10;1.00
435;DHT22;204;48.942;9.256;2022-09-13T08:11:34;24.30;1.00
435;DHT22;204;48.942;9.256;2022-09-13T08:14:01;24.50;1.00
435;DHT22;204;48.942;9.256;2022-09-13T08:16:28;24.60;1.00
435;DHT22;204;48.942;9.256;2022-09-13T08:18:57;24.60;1.00
435;DHT22;204;48.942;9.256;2022-09-13T08:21:23;24.80;1.00
435;DHT22;204;48.942;9.256;2022-09-13T08:23:53;25.00;1.00
435;DHT22;204;48.942;9.256;2022-09-13T08:26:20;25.20;1.00
435;DHT22;204;48.942;9.256;2022-09-13T08:28:46;25.30;1.00
435;DHT22;204;48.942;9.256;2022-09-13T08:31:13;25.50;1.00
435;DHT22;204;48.942;9.256;2022-09-13T08:33:43;25.60;1.00
435;DHT22;204;48.942;9.256;2022-09-13T08:36:09;25.90;1.00
435;DHT22;204;48.942;9.256;2022-09-13T08:38:34;26.10;1.00
435;DHT22;204;48.942;9.256;2022-09-13T08:43:48;26.50;1.00
435;DHT22;204;48.942;9.256;2022-09-13T08:46:28;26.50;1.00
435;DHT22;204;48.942;9.256;2022-09-13T08:49:11;26.80;1.00
435;DHT22;204;48.942;9.256;2022-09-13T08:54:12;27.30;1.00
435;DHT22;204;48.942;9.256;2022-09-13T09:05:21;28.10;99.90
435;DHT22;204;48.942;9.256;2022-09-13T09:10:22;28.10;99.90
435;DHT22;204;48.942;9.256;2022-09-13T09:12:58;28.10;99.90
435;DHT22;204;48.942;9.256;2022-09-13T09:15:38;28.10;99.90
435;DHT22;204;48.942;9.256;2022-09-13T09:20:50;28.10;99.90
435;DHT22;204;48.942;9.256;2022-09-13T09:23:20;28.00;99.90
435;DHT22;204;48.942;9.256;2022-09-13T09:25:45;27.90;99.90
435;DHT22;204;48.942;9.256;2022-09-13T09:28:13;27.90;99.90
435;DHT22;204;48.942;9.256;2022-09-13T09:31:01;28.00;99.90
435;DHT22;204;48.942;9.256;2022-09-13T09:36:40;28.00;99.90
435;DHT22;204;48.942;9.256;2022-09-13T09:39:13;28.10;99.90
435;DHT22;204;48.942;9.256;2022-09-13T09:41:44;28.20;99.90
435;DHT22;204;48.942;9.256;2022-09-13T09:44:26;28.20;99.90
435;DHT22;204;48.942;9.256;2022-09-13T09:47:03;28.00;99.90
435;DHT22;204;48.942;9.256;2022-09-13T09:52:48;27.60;99.90
435;DHT22;204;48.942;9.256;2022-09-13T09:57:53;27.10;99.90
435;DHT22;204;48.942;9.256;2022-09-13T10:00:22;27.00;99.90
435;DHT22;204;48.942;9.256;2022-09-13T10:02:52;27.10;99.90
435;DHT22;204;48.942;9.256;2022-09-13T10:05:20;27.20;99.90
435;DHT22;204;48.942;9.256;2022-09-13T10:07:59;27.30;99.90
435;DHT22;204;48.942;9.256;2022-09-13T10:10:42;27.50;99.90
435;DHT22;204;48.942;9.256;2022-09-13T10:13:21;27.80;99.90
435;DHT22;204;48.942;9.256;2022-09-13T10:18:24;28.20;99.90
435;DHT22;204;48.942;9.256;2022-09-13T10:21:04;28.40;99.90
435;DHT22;204;48.942;9.256;2022-09-13T10:23:31;28.70;99.90
435;DHT22;204;48.942;9.256;2022-09-13T10:28:34;29.20;99.90
435;DHT22;204;48.942;9.256;2022-09-13T10:31:07;29.30;99.90
435;DHT22;204;48.942;9.256;2022-09-13T10:33:37;29.40;99.90
435;DHT22;204;48.942;9.256;2022-09-13T10:36:18;29.40;99.90
435;DHT22;204;48.942;9.256;2022-09-13T10:38:51;29.60;99.90
435;DHT22;204;48.942;9.256;2022-09-13T10:41:24;29.90;99.90
435;DHT22;204;48.942;9.256;2022-09-13T10:44:00;30.10;99.90
435;DHT22;204;48.942;9.256;2022-09-13T10:46:29;30.30;99.90
435;DHT22;204;48.942;9.256;2022-09-13T10:48:55;30.50;99.90
435;DHT22;204;48.942;9.256;2022-09-13T10:54:18;30.70;99.90
435;DHT22;204;48.942;9.256;2022-09-13T10:56:45;30.70;99.90
435;DHT22;204;48.942;9.256;2022-09-13T10:59:25;30.70;99.90
435;DHT22;204;48.942;9.256;2022-09-13T11:05:11;30.70;99.90
435;DHT22;204;48.942;9.256;2022-09-13T11:10:49;30.70;99.90
435;DHT22;204;48.942;9.256;2022-09-13T11:16:36;31.00;99.90
435;DHT22;204;48.942;9.256;2022-09-13T11:24:46;31.60;99.90
435;DHT22;204;48.942;9.256;2022-09-13T11:54:27;31.70;99.90
435;DHT22;204;48.942;9.256;2022-09-13T11:57:01;31.90;99.90
435;DHT22;204;48.942;9.256;2022-09-13T11:59:38;31.90;99.90
435;DHT22;204;48.942;9.256;2022-09-13T12:02:19;32.20;99.90
435;DHT22;204;48.942;9.256;2022-09-13T12:04:55;32.40;99.90
435;DHT22;204;48.942;9.256;2022-09-13T12:10:33;32.90;99.90
435;DHT22;204;48.942;9.256;2022-09-13T12:13:02;32.90;99.90
435;DHT22;204;48.942;9.256;2022-09-13T12:15:36;32.80;99.90
435;DHT22;204;48.942;9.256;2022-09-13T12:18:10;33.00;99.90
435;DHT22;204;48.942;9.256;2022-09-13T12:20:43;32.90;99.90
435;DHT22;204;48.942;9.256;2022-09-13T12:23:22;32.70;99.90
435;DHT22;204;48.942;9.256;2022-09-13T12:26:18;32.50;99.90
435;DHT22;204;48.942;9.256;2022-09-13T12:28:45;32.40;99.90
435;DHT22;204;48.942;9.256;2022-09-13T12:31:24;32.40;99.90
435;DHT22;204;48.942;9.256;2022-09-13T12:33:50;32.50;99.90
435;DHT22;204;48.942;9.256;2022-09-13T12:44:17;32.70;99.90
435;DHT22;204;48.942;9.256;2022-09-13T13:05:29;31.90;99.90
435;DHT22;204;48.942;9.256;2022-09-13T13:08:00;31.80;99.90
435;DHT22;204;48.942;9.256;2022-09-13T13:10:32;31.50;99.90
435;DHT22;204;48.942;9.256;2022-09-13T13:18:27;31.20;99.90
435;DHT22;204;48.942;9.256;2022-09-13T13:29:35;31.40;99.90
435;DHT22;204;48.942;9.256;2022-09-13T13:34:48;31.60;99.90
435;DHT22;204;48.942;9.256;2022-09-13T13:39:42;31.40;99.90
435;DHT22;204;48.942;9.256;2022-09-13T13:42:26;31.50;99.90
435;DHT22;204;48.942;9.256;2022-09-13T13:52:33;31.60;99.90
435;DHT22;204;48.942;9.256;2022-09-13T13:55:02;31.50;99.90
435;DHT22;204;48.942;9.256;2022-09-13T13:57:39;31.40;99.90
435;DHT22;204;48.942;9.256;2022-09-13T14:00:25;31.30;99.90
435;DHT22;204;48.942;9.256;2022-09-13T14:10:41;31.10;99.90
435;DHT22;204;48.942;9.256;2022-09-13T14:16:10;31.10;99.90
435;DHT22;204;48.942;9.256;2022-09-13T14:21:38;31.20;99.90
435;DHT22;204;48.942;9.256;2022-09-13T14:24:20;31.30;99.90
435;DHT22;204;48.942;9.256;2022-09-13T14:26:52;31.20;99.90
435;DHT22;204;48.942;9.256;2022-09-13T14:29:20;31.20;99.90
435;DHT22;204;48.942;9.256;2022-09-13T14:31:51;31.10;99.90
435;DHT22;204;48.942;9.256;2022-09-13T14:34:27;31.10;99.90
435;DHT22;204;48.942;9.256;2022-09-13T14:36:59;31.20;99.90
435;DHT22;204;48.942;9.256;2022-09-13T14:39:25;31.30;99.90
435;DHT22;204;48.942;9.256;2022-09-13T14:42:13;31.30;99.90
435;DHT22;204;48.942;9.256;2022-09-13T14:44:43;31.40;99.90
435;DHT22;204;48.942;9.256;2022-09-13T14:49:57;31.30;99.90
435;DHT22;204;48.942;9.256;2022-09-13T14:55:13;31.10;99.90
435;DHT22;204;48.942;9.256;2022-09-13T14:57:47;31.10;99.90
435;DHT22;204;48.942;9.256;2022-09-13T15:02:39;31.20;99.90
435;DHT22;204;48.942;9.256;2022-09-13T15:05:12;31.30;99.90
435;DHT22;204;48.942;9.256;2022-09-13T15:07:39;31.30;99.90
435;DHT22;204;48.942;9.256;2022-09-13T15:12:37;31.30;99.90
435;DHT22;204;48.942;9.256;2022-09-13T15:15:26;31.40;99.90
435;DHT22;204;48.942;9.256;2022-09-13T15:18:20;31.50;99.90
435;DHT22;204;48.942;9.256;2022-09-13T15:20:56;31.50;99.90
435;DHT22;204;48.942;9.256;2022-09-13T15:26:00;31.80;99.90
435;DHT22;204;48.942;9.256;2022-09-13T15:28:32;31.80;99.90
435;DHT22;204;48.942;9.256;2022-09-13T15:30:59;31.70;99.90
435;DHT22;204;48.942;9.256;2022-09-13T15:33:28;31.60;99.90
435;DHT22;204;48.942;9.256;2022-09-13T15:38:58;31.10;99.90
435;DHT22;204;48.942;9.256;2022-09-13T15:41:28;30.80;99.90
435;DHT22;204;48.942;9.256;2022-09-13T15:43:56;30.60;99.90
435;DHT22;204;48.942;9.256;2022-09-13T15:46:22;30.40;99.90
435;DHT22;204;48.942;9.256;2022-09-13T15:48:58;30.30;99.90
435;DHT22;204;48.942;9.256;2022-09-13T15:51:25;30.20;99.90
435;DHT22;204;48.942;9.256;2022-09-13T15:53:53;30.00;99.90
435;DHT22;204;48.942;9.256;2022-09-13T15:56:29;29.90;99.90
435;DHT22;204;48.942;9.256;2022-09-13T15:58:56;29.70;99.90
435;DHT22;204;48.942;9.256;2022-09-13T16:01:22;29.70;99.90
435;DHT22;204;48.942;9.256;2022-09-13T16:03:47;29.50;99.90
435;DHT22;204;48.942;9.256;2022-09-13T16:06:13;29.40;99.90
435;DHT22;204;48.942;9.256;2022-09-13T16:08:39;29.30;99.90
435;DHT22;204;48.942;9.256;2022-09-13T16:11:05;29.30;99.90
435;DHT22;204;48.942;9.256;2022-09-13T16:13:31;29.10;99.90
435;DHT22;204;48.942;9.256;2022-09-13T16:15:57;29.00;99.90
435;DHT22;204;48.942;9.256;2022-09-13T16:18:23;28.90;99.90
435;DHT22;204;48.942;9.256;2022-09-13T16:20:49;28.80;99.90
435;DHT22;204;48.942;9.256;2022-09-13T16:23:15;28.70;99.90
435;DHT22;204;48.942;9.256;2022-09-13T16:25:41;28.50;99.90
435;DHT22;204;48.942;9.256;2022-09-13T16:28:08;28.50;99.90
435;DHT22;204;48.942;9.256;2022-09-13T16:30:37;28.40;99.90
435;DHT22;204;48.942;9.256;2022-09-13T16:33:02;28.30;99.90
435;DHT22;204;48.942;9.256;2022-09-13T16:35:30;28.30;99.90
435;DHT22;204;48.942;9.256;2022-09-13T16:37:56;28.20;99.90
435;DHT22;204;48.942;9.256;2022-09-13T16:40:22;28.10;99.90
435;DHT22;204;48.942;9.256;2022-09-13T16:42:48;28.10;99.90
435;DHT22;204;48.942;9.256;2022-09-13T16:45:14;28.00;99.90
435;DHT22;204;48.942;9.256;2022-09-13T16:47:39;27.90;99.90
435;DHT22;204;48.942;9.256;2022-09-13T16:50:06;27.90;99.90
435;DHT22;204;48.942;9.256;2022-09-13T16:52:32;27.80;99.90
435;DHT22;204;48.942;9.256;2022-09-13T16:55:00;27.70;99.90
435;DHT22;204;48.942;9.256;2022-09-13T16:57:26;27.50;99.90
435;DHT22;204;48.942;9.256;2022-09-13T16:59:52;27.50;99.90
435;DHT22;204;48.942;9.256;2022-09-13T17:02:19;27.30;99.90
435;DHT22;204;48.942;9.256;2022-09-13T17:04:45;27.20;99.90
435;DHT22;204;48.942;9.256;2022-09-13T17:07:12;27.10;99.90
435;DHT22;204;48.942;9.256;2022-09-13T17:09:38;27.00;99.90
435;DHT22;204;48.942;9.256;2022-09-13T17:12:05;26.80;99.90
435;DHT22;204;48.942;9.256;2022-09-13T17:14:31;26.70;99.90
435;DHT22;204;48.942;9.256;2022-09-13T17:16:57;26.60;99.90
435;DHT22;204;48.942;9.256;2022-09-13T17:19:26;26.40;99.90
435;DHT22;204;48.942;9.256;2022-09-13T17:21:52;26.30;99.90
435;DHT22;204;48.942;9.256;2022-09-13T17:24:22;26.20;99.90
435;DHT22;204;48.942;9.256;2022-09-13T17:26:48;26.10;99.90
435;DHT22;204;48.942;9.256;2022-09-13T17:29:14;26.00;99.90
435;DHT22;204;48.942;9.256;2022-09-13T17:31:39;25.90;99.90
435;DHT22;204;48.942;9.256;2022-09-13T17:34:05;25.80;99.90
435;DHT22;204;48.942;9.256;2022-09-13T17:36:31;25.70;99.90
435;DHT22;204;48.942;9.256;2022-09-13T17:38:57;25.50;99.90
435;DHT22;204;48.942;9.256;2022-09-13T17:41:24;25.40;99.90
435;DHT22;204;48.942;9.256;2022-09-13T17:43:50;25.30;99.90
435;DHT22;204;48.942;9.256;2022-09-13T17:46:18;25.10;99.90
435;DHT22;204;48.942;9.256;2022-09-13T17:48:48;25.00;99.90
435;DHT22;204;48.942;9.256;2022-09-13T17:51:16;24.90;99.90
435;DHT22;204;48.942;9.256;2022-09-13T17:53:47;24.70;99.90
435;DHT22;204;48.942;9.256;2022-09-13T17:56:17;24.60;99.90
435;DHT22;204;48.942;9.256;2022-09-13T17:58:43;24.50;99.90
435;DHT22;204;48.942;9.256;2022-09-13T18:01:09;24.40;99.90
435;DHT22;204;48.942;9.256;2022-09-13T18:03:36;24.30;99.90
435;DHT22;204;48.942;9.256;2022-09-13T18:06:03;24.30;99.90
435;DHT22;204;48.942;9.256;2022-09-13T18:08:32;24.20;99.90
435;DHT22;204;48.942;9.256;2022-09-13T18:11:07;24.20;99.90
435;DHT22;204;48.942;9.256;2022-09-13T18:13:33;24.10;99.90
435;DHT22;204;48.942;9.256;2022-09-13T18:16:01;24.00;99.90
435;DHT22;204;48.942;9.256;2022-09-13T18:18:27;24.00;99.90
435;DHT22;204;48.942;9.256;2022-09-13T18:20:53;23.90;99.90
435;DHT22;204;48.942;9.256;2022-09-13T18:23:19;23.80;99.90
435;DHT22;204;48.942;9.256;2022-09-13T18:26:04;23.70;99.90
435;DHT22;204;48.942;9.256;2022-09-13T18:28:31;23.70;99.90
435;DHT22;204;48.942;9.256;2022-09-13T18:30:59;23.70;99.90
435;DHT22;204;48.942;9.256;2022-09-13T18:33:26;23.60;99.90
435;DHT22;204;48.942;9.256;2022-09-13T18:36:00;23.50;99.90
435;DHT22;204;48.942;9.256;2022-09-13T18:38:29;23.50;99.90
435;DHT22;204;48.942;9.256;2022-09-13T18:41:09;23.40;99.90
435;DHT22;204;48.942;9.256;2022-09-13T18:43:37;23.40;99.90
435;DHT22;204;48.942;9.256;2022-09-13T18:46:04;23.30;99.90
435;DHT22;204;48.942;9.256;2022-09-13T18:48:32;23.20;99.90
435;DHT22;204;48.942;9.256;2022-09-13T18:50:58;23.10;99.90
435;DHT22;204;48.942;9.256;2022-09-13T18:53:25;23.00;99.90
435;DHT22;204;48.942;9.256;2022-09-13T18:55:51;23.00;99.90
435;DHT22;204;48.942;9.256;2022-09-13T18:58:17;22.90;99.90
435;DHT22;204;48.942;9.256;2022-09-13T19:00:43;22.80;99.90
435;DHT22;204;48.942;9.256;2022-09-13T19:03:09;22.70;99.90
435;DHT22;204;48.942;9.256;2022-09-13T19:05:36;22.70;99.90
435;DHT22;204;48.942;9.256;2022-09-13T19:08:08;22.60;99.90
435;DHT22;204;48.942;9.256;2022-09-13T19:10:35;22.50;99.90
435;DHT22;204;48.942;9.256;2022-09-13T19:13:01;22.40;99.90
435;DHT22;204;48.942;9.256;2022-09-13T19:15:26;22.30;99.90
435;DHT22;204;48.942;9.256;2022-09-13T19:17:52;22.30;99.90
435;DHT22;204;48.942;9.256;2022-09-13T19:20:17;22.20;99.90
435;DHT22;204;48.942;9.256;2022-09-13T19:22:45;22.10;1.00
435;DHT22;204;48.942;9.256;2022-09-13T19:25:11;22.10;1.00
435;DHT22;204;48.942;9.256;2022-09-13T19:27:36;22.00;1.00
435;DHT22;204;48.942;9.256;2022-09-13T19:30:02;21.90;1.00
435;DHT22;204;48.942;9.256;2022-09-13T19:32:28;21.80;1.00
435;DHT22;204;48.942;9.256;2022-09-13T19:34:54;21.70;1.00
435;DHT22;204;48.942;9.256;2022-09-13T19:37:19;21.70;1.00
435;DHT22;204;48.942;9.256;2022-09-13T19:39:45;21.70;1.00
435;DHT22;204;48.942;9.256;2022-09-13T19:42:11;21.60;1.00
435;DHT22;204;48.942;9.256;2022-09-13T19:44:37;21.60;1.00
435;DHT22;204;48.942;9.256;2022-09-13T19:47:02;21.50;1.00
435;DHT22;204;48.942;9.256;2022-09-13T19:49:30;21.50;1.00
435;DHT22;204;48.942;9.256;2022-09-13T19:51:56;21.50;1.00
435;DHT22;204;48.942;9.256;2022-09-13T19:54:21;21.50;1.00
435;DHT22;204;48.942;9.256;2022-09-13T19:56:47;21.50;1.00
435;DHT22;204;48.942;9.256;2022-09-13T19:59:16;21.50;1.00
435;DHT22;204;48.942;9.256;2022-09-13T20:01:44;21.50;1.00
435;DHT22;204;48.942;9.256;2022-09-13T20:04:19;21.40;1.00
435;DHT22;204;48.942;9.256;2022-09-13T20:06:47;21.40;1.00
435;DHT22;204;48.942;9.256;2022-09-13T20:09:14;21.40;1.00
435;DHT22;204;48.942;9.256;2022-09-13T20:11:41;21.30;1.00
435;DHT22;204;48.942;9.256;2022-09-13T20:14:10;21.30;1.00
435;DHT22;204;48.942;9.256;2022-09-13T20:16:38;21.20;1.00
435;DHT22;204;48.942;9.256;2022-09-13T20:19:05;21.20;1.00
435;DHT22;204;48.942;9.256;2022-09-13T20:21:32;21.20;1.00
435;DHT22;204;48.942;9.256;2022-09-13T20:24:01;21.20;1.00
435;DHT22;204;48.942;9.256;2022-09-13T20:26:28;21.20;1.00
435;DHT22;204;48.942;9.256;2022-09-13T20:28:59;21.10;1.00
435;DHT22;204;48.942;9.256;2022-09-13T20:31:25;21.10;1.00
435;DHT22;204;48.942;9.256;2022-09-13T20:33:56;21.10;1.00
435;DHT22;204;48.942;9.256;2022-09-13T20:36:22;21.10;1.00
435;DHT22;204;48.942;9.256;2022-09-13T20:38:48;21.10;1.00
435;DHT22;204;48.942;9.256;2022-09-13T20:41:15;21.10;1.00
435;DHT22;204;48.942;9.256;2022-09-13T20:43:41;21.10;1.00
435;DHT22;204;48.942;9.256;2022-09-13T20:46:10;21.00;1.00
435;DHT22;204;48.942;9.256;2022-09-13T20:48:36;21.00;1.00
435;DHT22;204;48.942;9.256;2022-09-13T20:51:04;21.00;1.00